Stavanger Bliss — LAGE7 — position and weather

sailwx.info

Track history (hours):
 
Tides and Currents Weather Stations Pressure Air Temp Water Temp Dewpoint Dewpoint Depression Visibility Wind Speed Wind Dir Waves Ship Positions

Stavanger Bliss

Last reported at 2014-Jun-13 17:11 UTC. Time now 2014-Jul-30 09:16 UTC.
Position N 26°09' E 055°51'.
Warning: this ship's position is 46 days out of date.

Length 229 m; draft 13 m.

Type: Ship. MMSI: 259791000.

Date/timePositionNaut miles runAvg speedWind from/ knotsBaromVisibWave heightAir tempDewpointWater temp
2014-Jun-13 17:11N 26°09' E 055°51'7 9.6
2014-Jun-13 16:29N 26°14' E 055°46'1111.9
2014-Jun-13 15:33N 26°11' E 055°34'1412.7
2014-Jun-13 14:28N 26°07' E 055°19'1112.2
2014-Jun-13 13:33N 26°08' E 055°07'1212.4
2014-Jun-13 12:33N 26°09' E 054°53'1312.2
2014-Jun-13 11:29N 26°11' E 054°39'1111.7
2014-Jun-13 10:33N 26°12' E 054°27'1211.6
2014-Jun-13 09:30N 26°13' E 054°13'1111.8
2014-Jun-13 08:33N 26°15' E 054°01'1211.8
2014-Jun-13 07:31N 26°16' E 053°47'1212.3
2014-Jun-13 06:33N 26°18' E 053°34'1312.5
2014-Jun-13 05:33N 26°23' E 053°22'5112.8
2014-Jun-13 01:33N 26°52' E 052°35'3411.3
2014-Jun-12 22:33N 27°02' E 051°58'2411.7
2014-Jun-12 20:32N 27°03' E 051°32'1211.7
2014-Jun-12 19:31N 27°04' E 051°18'2512.3
2014-Jun-12 17:30N 27°06' E 050°51'1212.6
2014-Jun-12 16:33N 27°06' E 050°37'1212.5
2014-Jun-12 15:33N 27°05' E 050°23'1212.3
2014-Jun-12 14:33N 26°56' E 050°13'1211.0
2014-Jun-12 13:29N 26°44' E 050°12'4 3.4
2014-Jun-12 12:13N 26°40' E 050°13'0 0.0
2014-Jun-12 10:25N 26°40' E 050°13'0 0.1
2014-Jun-12 09:23N 26°41' E 050°13'1 1.8
2014-Jun-12 08:33N 26°39' E 050°12'31 0.6
2014-Jun-10 07:10N 27°07' E 050°28'813.3
2014-Jun-10 06:33N 27°07' E 050°37'4814.1
2014-Jun-10 03:07N 27°06' E 051°31'1314.9
2014-Jun-10 02:16N 27°05' E 051°46'1115.1
2014-Jun-10 01:31N 27°04' E 051°58'6514.8
2014-Jun-09 21:10N 26°39' E 053°05'1114.9
2014-Jun-09 20:26N 26°34' E 053°15'1314.7
2014-Jun-09 19:33N 26°29' E 053°29'1515.0
2014-Jun-09 18:34N 26°27' E 053°45'1514.9
2014-Jun-09 17:33N 26°25' E 054°02'1514.7
2014-Jun-09 16:34N 26°23' E 054°18'1515.0
2014-Jun-09 15:33N 26°21' E 054°35'1514.9
2014-Jun-09 14:33N 26°19' E 054°51'1514.8
2014-Jun-09 13:33N 26°18' E 055°08'1615.3
2014-Jun-09 12:33N 26°21' E 055°25'1414.5
2014-Jun-09 11:33N 26°16' E 055°40'1414.0
2014-Jun-09 10:33N 26°09' E 055°54'1 1.4
2014-Jun-09 09:33N 26°08' E 055°53'1 1.1
2014-Jun-09 08:33N 26°08' E 055°52'1 0.6
2014-Jun-09 07:33N 26°08' E 055°51'14 7.1
2014-Jun-09 05:33N 26°19' E 056°01'1313.5
2014-Jun-09 04:33N 26°29' E 056°10'1313.4
2014-Jun-09 03:33N 26°36' E 056°23'  
Track history (hours):
 
Tides and Currents Weather Stations Pressure Air Temp Water Temp Dewpoint Dewpoint Depression Visibility Wind Speed Wind Dir Waves Ship Positions

Stavanger Bliss

Last reported at 2014-Jun-13 17:11 UTC. Time now 2014-Jul-30 09:16 UTC.
Position N 26°09' E 055°51'.
Warning: this ship's position is 46 days out of date.

Length 229 m; draft 13 m.

Type: Ship. MMSI: 259791000.

Date/timePositionNaut miles runAvg speedWind from/ knotsBaromVisibWave heightAir tempDewpointWater temp
2014-Jun-13 17:11N 26°09' E 055°51'7 9.6
2014-Jun-13 16:29N 26°14' E 055°46'1111.9
2014-Jun-13 15:33N 26°11' E 055°34'1412.7
2014-Jun-13 14:28N 26°07' E 055°19'1112.2
2014-Jun-13 13:33N 26°08' E 055°07'1212.4
2014-Jun-13 12:33N 26°09' E 054°53'1312.2
2014-Jun-13 11:29N 26°11' E 054°39'1111.7
2014-Jun-13 10:33N 26°12' E 054°27'1211.6
2014-Jun-13 09:30N 26°13' E 054°13'1111.8
2014-Jun-13 08:33N 26°15' E 054°01'1211.8
2014-Jun-13 07:31N 26°16' E 053°47'1212.3
2014-Jun-13 06:33N 26°18' E 053°34'1312.5
2014-Jun-13 05:33N 26°23' E 053°22'5112.8
2014-Jun-13 01:33N 26°52' E 052°35'3411.3
2014-Jun-12 22:33N 27°02' E 051°58'2411.7
2014-Jun-12 20:32N 27°03' E 051°32'1211.7
2014-Jun-12 19:31N 27°04' E 051°18'2512.3
2014-Jun-12 17:30N 27°06' E 050°51'1212.6
2014-Jun-12 16:33N 27°06' E 050°37'1212.5
2014-Jun-12 15:33N 27°05' E 050°23'1212.3
2014-Jun-12 14:33N 26°56' E 050°13'1211.0
2014-Jun-12 13:29N 26°44' E 050°12'4 3.4
2014-Jun-12 12:13N 26°40' E 050°13'0 0.0
2014-Jun-12 10:25N 26°40' E 050°13'0 0.1
2014-Jun-12 09:23N 26°41' E 050°13'1 1.8
2014-Jun-12 08:33N 26°39' E 050°12'31 0.6
2014-Jun-10 07:10N 27°07' E 050°28'813.3
2014-Jun-10 06:33N 27°07' E 050°37'4814.1
2014-Jun-10 03:07N 27°06' E 051°31'1314.9
2014-Jun-10 02:16N 27°05' E 051°46'1115.1
2014-Jun-10 01:31N 27°04' E 051°58'6514.8
2014-Jun-09 21:10N 26°39' E 053°05'1114.9
2014-Jun-09 20:26N 26°34' E 053°15'1314.7
2014-Jun-09 19:33N 26°29' E 053°29'1515.0
2014-Jun-09 18:34N 26°27' E 053°45'1514.9
2014-Jun-09 17:33N 26°25' E 054°02'1514.7
2014-Jun-09 16:34N 26°23' E 054°18'1515.0
2014-Jun-09 15:33N 26°21' E 054°35'1514.9
2014-Jun-09 14:33N 26°19' E 054°51'1514.8
2014-Jun-09 13:33N 26°18' E 055°08'1615.3
2014-Jun-09 12:33N 26°21' E 055°25'1414.5
2014-Jun-09 11:33N 26°16' E 055°40'1414.0
2014-Jun-09 10:33N 26°09' E 055°54'1 1.4
2014-Jun-09 09:33N 26°08' E 055°53'1 1.1
2014-Jun-09 08:33N 26°08' E 055°52'1 0.6
2014-Jun-09 07:33N 26°08' E 055°51'14 7.1
2014-Jun-09 05:33N 26°19' E 056°01'1313.5
2014-Jun-09 04:33N 26°29' E 056°10'1313.4
2014-Jun-09 03:33N 26°36' E 056°23'  

Dump ship's entire track history